Aviation Digital Data Service (ADDS)

Output produced by METARs form (1614 UTC 03 June 2020)
found at http://www.aviationweather.gov/metar/data/
 
Forecast for: EPWA (WARSAW/OKECIE , PL)
Text: TAF EPWA 031430Z 0315/0415 34007KT 9999 SCT040
Forecast period: 1500 UTC 03 June 2020 to 1500 UTC 04 June 2020
Forecast type: FROM: standard forecast or significant change
Winds: from the NNW (340 degrees) at 8 MPH (7 knots; 3.6 m/s)
Visibility: 6 or more miles 10+ km)
Ceiling: at least 12,000 feet AGL
Clouds: scattered clouds at 4000 feet AGL
Weather: no significant weather forecast for this period
Text: TEMPO 0315/0318 -SHRA BKN035CB
Forecast period: 1500 to 1800 UTC 03 June 2020
Forecast type: TEMPORARY: The following changes expected for less than half the time period
Visibility: missing
Ceiling: 3500 feet AGL
Clouds: broken clouds at 3500 feet AGL
Weather: -SHRA  (light rain showers)
Text: PROB40 0322/0404 4000 BR
Forecast period: 2200 UTC 03 June 2020 to 0400 UTC 04 June 2020
Forecast type: PROBABLE: 40 percent likelihood of the following during this time
Visibility: 2.49 miles (4.01 km)
Ceiling: unknown
Clouds: missing
Weather: BR  (mist)